createdAt,value
2023-02-18T00:01:48.031Z,4.39
2023-02-18T00:04:16.522Z,4.37
2023-02-18T00:06:44.963Z,4.39
2023-02-18T00:09:13.689Z,4.43
2023-02-18T00:11:42.202Z,4.48
2023-02-18T00:14:15.541Z,4.49
2023-02-18T00:16:45.553Z,4.52
2023-02-18T00:19:20.541Z,4.51
2023-02-18T00:21:49.178Z,4.49
2023-02-18T00:24:17.870Z,4.52
2023-02-18T00:26:46.490Z,4.61
2023-02-18T00:29:15.883Z,4.68
2023-02-18T00:31:47.588Z,4.75
2023-02-18T00:34:16.291Z,4.86
2023-02-18T00:36:44.850Z,4.97
2023-02-18T00:39:13.586Z,5.03
2023-02-18T00:41:42.891Z,5.04
2023-02-18T00:44:12.322Z,4.97
2023-02-18T00:46:41.147Z,4.92
2023-02-18T00:49:10.123Z,4.91
2023-02-18T00:51:40.258Z,4.90
2023-02-18T00:54:09.845Z,4.91
2023-02-18T00:56:38.470Z,4.87
2023-02-18T00:59:07.051Z,4.82
2023-02-18T01:01:35.857Z,4.80
2023-02-18T01:04:05.309Z,4.83
2023-02-18T01:06:34.350Z,4.83
2023-02-18T01:09:06.144Z,4.82
2023-02-18T01:11:35.173Z,4.80
2023-02-18T01:14:06.747Z,4.81
2023-02-18T01:16:35.853Z,4.80
2023-02-18T01:19:04.559Z,4.79
2023-02-18T01:21:33.283Z,4.74
2023-02-18T01:24:02.003Z,4.70
2023-02-18T01:26:31.042Z,4.71
2023-02-18T01:29:02.368Z,4.74
2023-02-18T01:31:31.206Z,4.79
2023-02-18T01:34:00.717Z,4.85
2023-02-18T01:36:30.827Z,4.85
2023-02-18T01:38:59.514Z,4.81
2023-02-18T01:41:28.339Z,4.77
2023-02-18T01:44:15.519Z,4.78
2023-02-18T01:46:47.876Z,4.76
2023-02-18T01:49:27.164Z,4.77
2023-02-18T01:52:17.579Z,4.76
2023-02-18T01:54:54.682Z,4.73
2023-02-18T01:57:37.776Z,4.65
2023-02-18T02:00:12.302Z,4.58
2023-02-18T02:02:48.076Z,4.60
2023-02-18T02:05:17.544Z,4.62
2023-02-18T02:07:49.390Z,4.62
2023-02-18T02:10:19.898Z,4.60
2023-02-18T02:13:15.537Z,4.62
2023-02-18T02:16:30.440Z,4.65
2023-02-18T02:20:01.835Z,4.59
2023-02-18T02:23:10.756Z,4.57
2023-02-18T02:26:40.198Z,4.55
2023-02-18T02:29:58.642Z,4.63
2023-02-18T02:33:11.713Z,4.63
2023-02-18T02:35:49.229Z,4.47
2023-02-18T02:38:29.707Z,4.49
2023-02-18T02:41:17.363Z,4.51
2023-02-18T02:44:19.044Z,4.57
2023-02-18T02:46:53.211Z,4.63
2023-02-18T02:50:10.867Z,4.69
2023-02-18T02:52:50.789Z,4.70
2023-02-18T02:55:21.732Z,4.68
2023-02-18T02:57:55.720Z,4.64
2023-02-18T03:00:55.092Z,4.65
2023-02-18T03:04:04.956Z,4.70
2023-02-18T03:06:42.552Z,4.69
2023-02-18T03:21:56.353Z,5.05
2023-02-18T03:24:30.071Z,5.16
2023-02-18T03:27:13.510Z,5.11
2023-02-18T03:29:46.765Z,5.04
2023-02-18T03:32:21.669Z,4.94
2023-02-18T03:34:57.989Z,4.78
2023-02-18T03:37:27.640Z,4.74
2023-02-18T03:40:02.105Z,4.72
2023-02-18T03:51:15.283Z,4.77
2023-02-18T03:53:44.778Z,4.74
2023-02-18T03:56:14.697Z,4.74
2023-02-18T03:58:43.730Z,4.77
2023-02-18T04:01:12.972Z,4.79
2023-02-18T04:03:41.602Z,4.78
2023-02-18T04:06:10.770Z,4.76
2023-02-18T04:08:39.688Z,4.78
2023-02-18T04:11:08.456Z,4.80
2023-02-18T04:13:37.373Z,4.81
2023-02-18T04:16:22.128Z,4.85
2023-02-18T04:18:50.878Z,4.86
2023-02-18T04:21:19.434Z,4.88
2023-02-18T04:23:48.143Z,4.75
2023-02-18T04:26:16.861Z,4.62
2023-02-18T04:28:45.583Z,4.55
2023-02-18T04:31:14.429Z,4.53
2023-02-18T04:33:43.005Z,4.55
2023-02-18T04:36:12.402Z,4.56
2023-02-18T04:38:43.320Z,4.55
2023-02-18T04:41:13.449Z,4.57
2023-02-18T04:43:42.052Z,4.60
2023-02-18T04:46:10.863Z,4.60
2023-02-18T04:48:39.810Z,4.60
2023-02-18T04:51:08.566Z,4.57
2023-02-18T04:53:37.196Z,4.61
2023-02-18T04:56:06.229Z,4.63
2023-02-18T04:58:34.982Z,4.61
2023-02-18T05:01:05.662Z,4.61
2023-02-18T05:03:34.548Z,4.61
2023-02-18T05:06:03.827Z,4.58
2023-02-18T05:08:32.445Z,4.56
2023-02-18T05:11:01.185Z,4.57
2023-02-18T05:13:30.194Z,4.58
2023-02-18T05:15:58.828Z,4.63
2023-02-18T05:18:27.533Z,4.67
2023-02-18T05:20:56.197Z,4.71
2023-02-18T05:23:26.234Z,4.75
2023-02-18T05:25:56.102Z,4.74
2023-02-18T05:28:25.341Z,4.71
2023-02-18T05:30:54.068Z,4.66
2023-02-18T05:33:22.699Z,4.60
2023-02-18T05:35:51.171Z,4.57
2023-02-18T05:38:19.880Z,4.59
2023-02-18T05:40:48.830Z,4.61
2023-02-18T05:43:17.446Z,4.65
2023-02-18T05:45:46.213Z,4.68
2023-02-18T05:48:14.857Z,4.70
2023-02-18T05:50:43.703Z,4.76
2023-02-18T05:53:12.444Z,4.81
2023-02-18T05:55:41.273Z,4.86
2023-02-18T05:58:10.907Z,4.89
2023-02-18T06:00:40.111Z,4.96
2023-02-18T06:03:08.860Z,5.01
2023-02-18T06:05:37.530Z,5.04
2023-02-18T06:08:06.183Z,5.12
2023-02-18T06:10:35.276Z,5.23
2023-02-18T06:13:04.455Z,5.31
2023-02-18T06:15:33.168Z,5.36
2023-02-18T06:18:04.648Z,5.48
2023-02-18T06:20:33.853Z,5.66
2023-02-18T06:23:02.694Z,5.89
2023-02-18T06:25:31.461Z,5.94
2023-02-18T06:28:00.186Z,6.01
2023-02-18T06:30:28.840Z,6.03
2023-02-18T06:32:57.646Z,6.04
2023-02-18T06:35:26.229Z,6.06
2023-02-18T06:37:54.928Z,6.06
2023-02-18T06:40:23.592Z,6.10
2023-02-18T06:42:52.380Z,6.19
2023-02-18T06:45:21.287Z,6.25
2023-02-18T06:47:50.164Z,6.31
2023-02-18T06:50:19.817Z,6.42
2023-02-18T06:52:48.529Z,6.58
2023-02-18T06:55:17.439Z,6.73
2023-02-18T06:57:46.046Z,6.85
2023-02-18T07:00:15.097Z,6.97
2023-02-18T07:02:43.834Z,7.01
2023-02-18T07:05:12.725Z,7.01
2023-02-18T07:07:41.370Z,7.07
2023-02-18T07:10:10.879Z,7.16
2023-02-18T07:12:39.587Z,7.25
2023-02-18T07:15:08.835Z,7.36
2023-02-18T07:17:37.549Z,7.50
2023-02-18T07:20:07.816Z,7.60
2023-02-18T07:22:36.624Z,7.55
2023-02-18T07:25:05.614Z,7.48
2023-02-18T07:27:34.526Z,7.49
2023-02-18T07:30:03.539Z,7.50
2023-02-18T07:32:32.343Z,7.52
2023-02-18T07:35:01.305Z,7.52
2023-02-18T07:37:30.096Z,7.54
2023-02-18T07:39:58.901Z,7.61
2023-02-18T07:42:27.557Z,7.63
2023-02-18T07:44:56.505Z,7.69
2023-02-18T07:47:27.820Z,7.86
2023-02-18T07:49:56.675Z,8.05
2023-02-18T07:52:25.328Z,8.32
2023-02-18T07:54:54.072Z,8.49
2023-02-18T07:57:22.771Z,8.71
2023-02-18T07:59:51.496Z,8.85
2023-02-18T08:02:24.345Z,8.98
2023-02-18T08:04:53.289Z,9.21
2023-02-18T08:07:23.412Z,9.37
2023-02-18T08:09:52.160Z,9.56
2023-02-18T08:12:20.690Z,9.62
2023-02-18T08:14:49.196Z,9.76
2023-02-18T08:17:18.372Z,9.99
2023-02-18T08:19:46.985Z,10.15
2023-02-18T08:22:15.629Z,10.41
2023-02-18T08:24:44.240Z,10.68
2023-02-18T08:27:14.862Z,10.62
2023-02-18T08:29:43.644Z,10.54
2023-02-18T08:32:12.496Z,10.38
2023-02-18T08:34:41.318Z,10.50
2023-02-18T08:37:10.201Z,10.48
2023-02-18T08:39:43.086Z,10.47
2023-02-18T08:42:11.918Z,10.48
2023-02-18T08:44:40.754Z,10.49
2023-02-18T08:48:18.538Z,10.46
2023-02-18T08:49:58.452Z,10.47
2023-02-18T08:52:28.076Z,10.52
2023-02-18T08:54:56.843Z,10.60
2023-02-18T08:57:25.518Z,10.77
2023-02-18T08:59:54.371Z,10.90
2023-02-18T09:02:23.000Z,10.99
2023-02-18T09:04:52.776Z,11.07
2023-02-18T09:07:21.351Z,11.19
2023-02-18T09:09:50.084Z,11.41
2023-02-18T09:12:18.788Z,11.79
2023-02-18T09:14:50.242Z,12.06
2023-02-18T09:17:18.726Z,12.10
2023-02-18T09:19:47.366Z,11.98
2023-02-18T09:22:16.169Z,11.98
2023-02-18T09:24:44.916Z,12.11
2023-02-18T09:27:13.444Z,12.15
2023-02-18T09:29:42.876Z,12.25
2023-02-18T09:32:14.478Z,12.35
2023-02-18T09:34:48.302Z,12.62
2023-02-18T09:37:16.775Z,12.61
2023-02-18T09:39:45.277Z,12.85
2023-02-18T09:42:21.145Z,12.92
2023-02-18T09:44:54.183Z,13.22
2023-02-18T09:47:40.492Z,13.29
2023-02-18T09:50:22.732Z,13.37
2023-02-18T09:52:51.262Z,13.41
2023-02-18T09:55:30.346Z,13.45
2023-02-18T09:58:13.402Z,13.54
2023-02-18T10:00:51.109Z,13.61
2023-02-18T10:03:26.702Z,13.82
2023-02-18T10:06:06.433Z,13.80
2023-02-18T10:08:40.113Z,13.67
2023-02-18T10:11:22.137Z,13.59
2023-02-18T10:13:58.981Z,13.82
2023-02-18T10:16:28.144Z,13.90
2023-02-18T10:19:01.304Z,14.31
2023-02-18T10:21:36.309Z,14.18
2023-02-18T10:24:38.105Z,14.09
2023-02-18T10:27:08.684Z,14.13
2023-02-18T10:29:37.156Z,14.05
2023-02-18T10:32:23.204Z,14.15
2023-02-18T10:35:23.870Z,14.52
2023-02-18T10:37:59.224Z,14.97
2023-02-18T10:41:14.308Z,15.24
2023-02-18T10:43:57.784Z,15.29
2023-02-18T10:47:08.102Z,15.32
2023-02-18T10:50:08.835Z,14.60
2023-02-18T10:52:48.318Z,14.78
2023-02-18T10:55:18.964Z,14.82
2023-02-18T10:57:54.175Z,14.92
2023-02-18T11:00:27.925Z,15.06
2023-02-18T11:03:19.208Z,15.25
2023-02-18T11:05:50.887Z,15.48
2023-02-18T11:08:38.666Z,15.09
2023-02-18T11:11:47.944Z,15.25
2023-02-18T11:14:43.216Z,14.94
2023-02-18T11:17:27.101Z,14.65
2023-02-18T11:20:02.048Z,14.35
2023-02-18T11:22:41.592Z,14.03
2023-02-18T11:25:23.516Z,14.03
2023-02-18T11:28:01.740Z,14.25
2023-02-18T11:30:46.456Z,14.39
2023-02-18T11:33:48.386Z,14.69
2023-02-18T11:36:28.269Z,15.03
2023-02-18T11:39:07.549Z,15.22
2023-02-18T11:41:41.534Z,15.81
2023-02-18T11:44:41.950Z,15.68
2023-02-18T11:47:12.989Z,16.00
2023-02-18T11:49:44.422Z,16.27
2023-02-18T11:52:29.488Z,16.37
2023-02-18T11:55:13.679Z,16.43
2023-02-18T11:57:58.351Z,16.64
2023-02-18T12:00:46.322Z,16.79
2023-02-18T12:03:23.357Z,17.06
2023-02-18T12:05:52.344Z,17.02
2023-02-18T12:08:29.057Z,16.99
2023-02-18T12:11:07.364Z,17.15
2023-02-18T12:13:51.531Z,17.45
2023-02-18T12:16:37.428Z,17.58
2023-02-18T12:19:15.054Z,17.84
2023-02-18T12:22:16.679Z,18.23
2023-02-18T12:25:06.530Z,18.30
2023-02-18T12:27:56.979Z,18.42
2023-02-18T12:31:12.556Z,18.57
2023-02-18T12:34:39.201Z,18.68
2023-02-18T12:37:19.558Z,18.96
2023-02-18T12:40:25.415Z,19.21
2023-02-18T12:43:02.355Z,19.53
2023-02-18T12:46:07.664Z,19.51
2023-02-18T12:49:15.828Z,19.25
2023-02-18T12:52:14.724Z,19.35
2023-02-18T12:54:49.985Z,19.41
2023-02-18T12:57:30.681Z,19.28
2023-02-18T13:00:55.338Z,19.36
2023-02-18T13:04:05.755Z,18.83
2023-02-18T13:06:52.478Z,18.85
2023-02-18T13:09:57.331Z,18.93
2023-02-18T13:12:51.621Z,19.03
2023-02-18T13:15:28.842Z,18.47
2023-02-18T13:18:01.717Z,18.40
2023-02-18T13:20:40.680Z,18.88
2023-02-18T13:23:21.042Z,18.84
2023-02-18T13:26:01.129Z,18.44
2023-02-18T13:28:55.654Z,17.87
2023-02-18T13:31:45.454Z,17.82
2023-02-18T13:34:43.569Z,17.56
2023-02-18T13:37:37.688Z,17.92
2023-02-18T13:40:14.708Z,18.24
2023-02-18T13:42:43.151Z,18.39
2023-02-18T13:45:32.079Z,18.60
2023-02-18T13:48:01.674Z,18.59
2023-02-18T13:50:42.445Z,18.61
2023-02-18T13:53:13.121Z,18.37
2023-02-18T13:56:09.551Z,18.08
2023-02-18T13:58:55.224Z,17.77
2023-02-18T14:01:46.407Z,17.23
2023-02-18T14:04:39.801Z,16.80
2023-02-18T14:07:41.679Z,16.22
2023-02-18T14:10:12.839Z,15.84
2023-02-18T14:13:03.842Z,15.37
2023-02-18T14:15:32.803Z,15.02
2023-02-18T14:18:13.697Z,14.72
2023-02-18T14:20:52.040Z,14.56
2023-02-18T14:23:20.420Z,14.86
2023-02-18T14:26:04.512Z,15.37
2023-02-18T14:28:36.327Z,15.44
2023-02-18T14:31:14.097Z,14.96
2023-02-18T14:33:55.793Z,14.51
2023-02-18T14:36:45.589Z,14.06
2023-02-18T14:39:33.118Z,13.69
2023-02-18T14:42:38.784Z,13.39
2023-02-18T14:45:41.030Z,13.18
2023-02-18T14:48:36.767Z,12.99
2023-02-18T14:51:06.212Z,12.88
2023-02-18T14:53:45.388Z,12.84
2023-02-18T14:56:18.600Z,12.81
2023-02-18T14:59:00.278Z,12.72
2023-02-18T15:01:34.995Z,12.62
2023-02-18T15:04:04.873Z,12.54
2023-02-18T15:06:37.549Z,12.45
2023-02-18T15:09:22.357Z,12.34
2023-02-18T15:12:01.409Z,12.25
2023-02-18T15:14:34.644Z,12.16
2023-02-18T15:17:06.387Z,12.11
2023-02-18T15:19:42.326Z,12.06
2023-02-18T15:22:24.027Z,12.01
2023-02-18T15:24:55.941Z,11.94
2023-02-18T15:27:28.945Z,11.88
2023-02-18T15:30:24.905Z,11.81
2023-02-18T15:32:56.594Z,11.76
2023-02-18T15:35:33.276Z,11.68
2023-02-18T15:38:04.629Z,11.62
2023-02-18T15:40:37.720Z,11.57
2023-02-18T15:43:06.897Z,11.49
2023-02-18T15:45:45.493Z,11.38
2023-02-18T15:48:53.342Z,11.19
2023-02-18T15:51:29.086Z,11.00
2023-02-18T15:54:02.831Z,10.86
2023-02-18T15:56:39.377Z,10.67
2023-02-18T15:59:19.457Z,10.55
2023-02-18T16:01:55.733Z,10.41
2023-02-18T16:04:32.065Z,10.24
2023-02-18T16:07:24.479Z,10.09
2023-02-18T16:10:18.218Z,9.85
2023-02-18T16:12:53.106Z,9.62
2023-02-18T16:15:37.813Z,9.33
2023-02-18T16:18:07.404Z,9.06
2023-02-18T16:20:39.508Z,8.87
2023-02-18T16:23:15.214Z,8.78
2023-02-18T16:25:50.642Z,8.82
2023-02-18T16:28:33.132Z,8.99
2023-02-18T16:31:01.563Z,9.22
2023-02-18T16:33:29.997Z,9.37
2023-02-18T16:35:58.553Z,9.29
2023-02-18T16:38:27.170Z,9.05
2023-02-18T16:40:55.725Z,8.84
2023-02-18T16:43:28.972Z,8.68
2023-02-18T16:46:05.225Z,8.58
2023-02-18T16:48:41.218Z,8.52
2023-02-18T16:51:26.661Z,8.44
2023-02-18T16:53:55.216Z,8.34
2023-02-18T16:56:27.064Z,8.27
2023-02-18T16:58:55.556Z,8.25
2023-02-18T17:01:48.632Z,8.25
2023-02-18T17:04:20.170Z,8.28
2023-02-18T17:06:48.747Z,8.29
2023-02-18T17:09:23.420Z,8.37
2023-02-18T17:11:55.305Z,8.34
2023-02-18T17:14:23.979Z,8.28
2023-02-18T17:16:54.574Z,8.23
2023-02-18T17:19:23.554Z,8.19
2023-02-18T17:21:52.065Z,8.26
2023-02-18T17:24:20.634Z,8.40
2023-02-18T17:26:49.126Z,8.60
2023-02-18T17:29:17.604Z,8.78
2023-02-18T17:31:47.618Z,8.92
2023-02-18T17:34:25.421Z,8.97
2023-02-18T17:36:54.815Z,8.96
2023-02-18T17:39:24.762Z,8.95
2023-02-18T17:41:53.350Z,8.91
2023-02-18T17:44:24.191Z,8.87
2023-02-18T17:46:53.127Z,8.86
2023-02-18T17:49:22.536Z,8.77
2023-02-18T17:51:52.235Z,8.65
2023-02-18T17:54:22.975Z,8.57
2023-02-18T17:56:51.485Z,8.49
2023-02-18T17:59:19.984Z,8.42
2023-02-18T18:01:48.543Z,8.38
2023-02-18T18:04:19.482Z,8.36
2023-02-18T18:06:50.016Z,8.36
2023-02-18T18:09:18.550Z,8.42
2023-02-18T18:11:47.044Z,8.51
2023-02-18T18:14:15.484Z,8.59
2023-02-18T18:16:44.032Z,8.68
2023-02-18T18:19:12.520Z,8.80
2023-02-18T18:21:41.129Z,8.95
2023-02-18T18:24:12.764Z,9.03
2023-02-18T18:26:41.358Z,9.04
2023-02-18T18:29:09.893Z,8.89
2023-02-18T18:31:38.463Z,8.57
2023-02-18T18:34:07.064Z,8.19
2023-02-18T18:36:35.707Z,7.85
2023-02-18T18:39:04.261Z,7.60
2023-02-18T18:41:32.753Z,7.41
2023-02-18T18:44:01.325Z,7.29
2023-02-18T18:46:29.968Z,7.16
2023-02-18T18:48:58.507Z,6.97
2023-02-18T18:51:31.051Z,6.86
2023-02-18T18:53:59.598Z,6.83
2023-02-18T18:56:28.213Z,6.82
2023-02-18T18:58:56.802Z,6.75
2023-02-18T19:01:27.735Z,6.71
2023-02-18T19:03:56.441Z,6.67
2023-02-18T19:06:24.982Z,6.60
2023-02-18T19:08:53.586Z,6.55
2023-02-18T19:11:22.166Z,6.58
2023-02-18T19:13:50.691Z,6.58
2023-02-18T19:16:34.915Z,6.57
2023-02-18T19:19:03.417Z,6.60
2023-02-18T19:21:33.615Z,6.65
2023-02-18T19:24:02.549Z,6.72
2023-02-18T19:26:31.437Z,6.79
2023-02-18T19:28:59.903Z,6.85
2023-02-18T19:31:28.789Z,6.88
2023-02-18T19:33:57.296Z,6.86
2023-02-18T19:36:25.734Z,6.85
2023-02-18T19:38:54.500Z,6.87
2023-02-18T19:41:23.041Z,6.92
2023-02-18T19:43:51.474Z,6.96
2023-02-18T19:46:20.059Z,6.99
2023-02-18T19:48:52.761Z,7.03
2023-02-18T19:51:21.835Z,7.11
2023-02-18T19:53:50.499Z,7.12
2023-02-18T19:56:19.075Z,7.13
2023-02-18T19:58:47.579Z,7.11
2023-02-18T20:01:17.912Z,7.11
2023-02-18T20:03:47.469Z,7.15
2023-02-18T20:06:18.837Z,7.18
2023-02-18T20:08:47.629Z,7.20
2023-02-18T20:11:16.246Z,7.19
2023-02-18T20:13:44.848Z,7.15
2023-02-18T20:16:13.777Z,7.13
2023-02-18T20:18:42.324Z,7.15
2023-02-18T20:21:12.457Z,7.17
2023-02-18T20:23:42.140Z,7.22
2023-02-18T20:26:12.899Z,7.26
2023-02-18T20:28:41.852Z,7.28
2023-02-18T20:31:13.126Z,7.35
2023-02-18T20:33:45.108Z,7.41
2023-02-18T20:36:14.693Z,7.46
2023-02-18T20:38:43.544Z,7.48
2023-02-18T20:41:14.798Z,7.44
2023-02-18T20:43:43.731Z,7.39
2023-02-18T20:46:16.244Z,7.40
2023-02-18T20:48:46.782Z,7.40
2023-02-18T20:51:19.696Z,7.37
2023-02-18T20:53:49.055Z,7.34
2023-02-18T20:56:20.891Z,7.34
2023-02-18T20:58:49.704Z,7.35
2023-02-18T21:01:19.862Z,7.33
2023-02-18T21:03:49.690Z,7.31
2023-02-18T21:06:22.038Z,7.26
2023-02-18T21:08:53.446Z,7.20
2023-02-18T21:11:25.890Z,7.18
2023-02-18T21:13:57.287Z,7.17
2023-02-18T21:16:28.340Z,7.18
2023-02-18T21:18:56.898Z,7.15
2023-02-18T21:21:26.710Z,7.09
2023-02-18T21:23:55.199Z,7.07
2023-02-18T21:26:26.254Z,7.05
2023-02-18T21:28:58.757Z,7.05
2023-02-18T21:31:35.356Z,7.09
2023-02-18T21:34:06.253Z,7.09
2023-02-18T21:36:34.887Z,7.12
2023-02-18T21:39:07.579Z,7.15
2023-02-18T21:41:40.500Z,7.18
2023-02-18T21:44:10.911Z,7.20
2023-02-18T21:46:39.742Z,7.23
2023-02-18T21:49:10.952Z,7.24
2023-02-18T21:51:57.117Z,7.24
2023-02-18T21:54:28.678Z,7.25
2023-02-18T21:56:59.373Z,7.27
2023-02-18T21:59:30.637Z,7.29
2023-02-18T22:02:00.524Z,7.28
2023-02-18T22:04:32.067Z,7.26
2023-02-18T22:07:01.439Z,7.23
2023-02-18T22:09:30.269Z,7.17
2023-02-18T22:11:58.709Z,7.13
2023-02-18T22:14:27.363Z,7.07
2023-02-18T22:16:55.947Z,6.99
2023-02-18T22:19:24.768Z,6.90
2023-02-18T22:21:53.517Z,6.80
2023-02-18T22:24:22.091Z,6.73
2023-02-18T22:26:51.173Z,6.68
2023-02-18T22:29:20.868Z,6.66
2023-02-18T22:31:50.616Z,6.60
2023-02-18T22:34:20.182Z,6.53
2023-02-18T22:36:49.642Z,6.48
2023-02-18T22:39:18.471Z,6.41
2023-02-18T22:41:47.330Z,6.37
2023-02-18T22:44:17.863Z,6.36
2023-02-18T22:46:46.714Z,6.41
2023-02-18T22:49:15.799Z,6.49
2023-02-18T22:51:45.053Z,6.55
2023-02-18T22:54:17.170Z,6.55
2023-02-18T22:56:47.655Z,6.53
2023-02-18T22:59:19.537Z,6.62
2023-02-18T23:01:49.891Z,6.67
2023-02-18T23:04:20.560Z,6.71
2023-02-18T23:06:51.149Z,6.72
2023-02-18T23:09:24.809Z,6.67
2023-02-18T23:11:57.650Z,6.60
2023-02-18T23:14:28.470Z,6.66
2023-02-18T23:17:18.919Z,6.69
2023-02-18T23:19:54.076Z,6.68
2023-02-18T23:22:33.746Z,6.70
2023-02-18T23:25:03.492Z,6.70
2023-02-18T23:27:32.331Z,6.69
2023-02-18T23:30:01.282Z,6.67
2023-02-18T23:32:30.888Z,6.64
2023-02-18T23:35:02.697Z,6.54
2023-02-18T23:37:50.001Z,6.48
2023-02-18T23:40:20.977Z,6.47
2023-02-18T23:42:49.669Z,6.47
2023-02-18T23:45:18.282Z,6.46
2023-02-18T23:47:46.873Z,6.50
2023-02-18T23:50:19.112Z,6.57
2023-02-18T23:52:50.345Z,6.59
2023-02-18T23:55:19.077Z,6.66
2023-02-18T23:57:47.706Z,6.70
